Flight Track Log - Related Links

Times and Time Zones

All times are in EDT time to prevent confusion due to time zone crossing. See the AAL832 flight status page for this flight to view local times or setup timezone preferences in your user account.

Time Position Orientation Groundspeed Altitude Reporting Facility
EDT Latitude Longitude Course Direction KTS MPH feet Rate Location/Type
Wed 05:23:41 PM 41.9167 -87.9500 157° South 207 238 4,100  Level Chicago TRACON
Wed 05:25:00 PM 41.6462 -87.7109 189° South  Level Estimated
Wed 05:25:19 PM 41.8333 -88.0414 219° Southwest 240 276 5,000  Level Chicago Center
Wed 05:26:00 PM 41.5343 -87.6460 189° South  Level Estimated
Wed 05:26:21 PM 41.7636 -88.0256 170° South 264 304 5,200  Level Chicago Center
Wed 05:27:00 PM 41.4224 -87.5815 194° South  Level Estimated
Wed 05:27:23 PM 41.6719 -88.0217 178° South 284 327 8,500  Level Chicago Center
Wed 05:28:00 PM 41.3104 -87.5171 180° South  Level Estimated
Wed 05:28:25 PM 41.5872 -88.0236 181° South 302 348 11,800  Level Chicago Center
Wed 05:29:00 PM 41.1993 -87.4534 157° South  Level Estimated
Wed 05:29:27 PM 41.4983 -88.0267 181° South 317 365 15,200  Level Chicago Center
Wed 05:30:29 PM 41.4042 -88.0344 184° South 336 387 17,000 2,177 Climbing Chicago Center
Wed 05:31:31 PM 41.2861 -88.0706 193° South 386 444 19,700 2,468 Climbing Chicago Center
Wed 05:32:33 PM 41.1794 -88.1042 193° South 393 452 22,100 2,064 Climbing Chicago Center
Wed 05:33:36 PM 41.0667 -88.1364 192° South 412 474 24,000 1,536 Climbing Chicago Center
Wed 05:34:38 PM 40.9461 -88.1694 192° South 437 503 25,300 1,597 Climbing Chicago Center
Wed 05:35:40 PM 40.7939 -88.2144 193° South 466 536 27,300 1,742 Climbing Chicago Center
Wed 05:36:42 PM 40.6636 -88.2500 192° South 477 549 28,900 1,597 Climbing Chicago Center
Wed 05:37:44 PM 40.5308 -88.2875 192° South 488 562 30,600 1,694 Climbing Chicago Center
Wed 05:38:46 PM 40.3986 -88.3269 193° South 490 564 32,400 1,645 Climbing Chicago Center
Wed 05:39:48 PM 40.2694 -88.3708 195° South 484 557 34,000 1,597 Climbing Chicago Center
Wed 05:40:50 PM 40.1169 -88.4206 194° South 483 556 35,700 1,548 Climbing Chicago Center
Wed 05:41:52 PM 39.9858 -88.4642 194° South 479 551 37,200 1,122 Climbing Chicago Center
Wed 05:42:53 PM 39.8611 -88.5047 194° South 473 544 38,000 384 Climbing Kansas City Center
Wed 05:43:57 PM 39.7322 -88.5456 194° South 473 544 38,000  Level Kansas City Center
Wed 05:44:57 PM 39.5994 -88.5889 194° South 483 556 38,000  Level Kansas City Center
Wed 05:46:01 PM 39.4697 -88.6314 194° South 482 555 38,000  Level Kansas City Center
Wed 05:47:02 PM 39.3319 -88.6781 195° South 475 547 38,000  Level Kansas City Center
Wed 05:48:03 PM 39.2042 -88.7189 194° South 473 544 38,000  Level Kansas City Center
Wed 05:49:07 PM 39.0758 -88.7592 194° South 474 545 38,000  Level Kansas City Center
Wed 05:50:07 PM 38.9486 -88.8000 194° South 471 542 38,000  Level Kansas City Center
Wed 05:51:11 PM 38.7911 -88.8225 186° South 479 551 38,000  Level Kansas City Center
Wed 05:52:12 PM 38.6606 -88.8367 185° South 474 545 38,000  Level Kansas City Center
Wed 05:53:14 PM 38.5169 -88.8500 184° South 477 549 38,000  Level Kansas City Center
Wed 05:54:17 PM 38.3856 -88.8622 184° South 475 547 38,000  Level Kansas City Center
Wed 05:55:18 PM 38.2672 -88.8864 189° South 469 540 38,000  Level Kansas City Center
Wed 05:56:21 PM 38.1408 -88.9314 196° South 467 537 38,000  Level Kansas City Center
Wed 05:57:22 PM 38.0167 -88.9761 196° South 466 536 38,000  Level Kansas City Center
Wed 05:58:25 PM 37.8669 -89.0281 195° South 465 535 38,000  Level Kansas City Center
Wed 05:59:29 PM 37.7447 -89.0672 194° South 458 527 38,000  Level Kansas City Center
Wed 06:00:31 PM 37.6133 -89.0589 177° South 463 533 38,000  Level Kansas City Center
Wed 06:01:31 PM 37.4836 -89.0514 177° South 466 536 38,000  Level Kansas City Center
Wed 06:02:35 PM 37.3331 -89.0778 188° South 457 526 38,000  Level Kansas City Center
Wed 06:03:38 PM 37.2100 -89.1269 198° South 461 531 38,000  Level Kansas City Center
Wed 06:04:40 PM 37.0892 -89.1758 198° South 459 528 38,000  Level Kansas City Center
Wed 06:05:41 PM 36.9697 -89.2244 198° South 455 524 38,000  Level Kansas City Center
Wed 06:06:48 PM 36.8208 -89.2867 198° South 461 531 38,000  Level Memphis Center
Wed 06:07:49 PM 36.6983 -89.3347 197° South 461 531 38,000  Level Memphis Center
Wed 06:08:48 PM 36.5822 -89.3853 199° South 461 531 38,000  Level Memphis Center
Wed 06:09:48 PM 36.4575 -89.4383 199° South 467 537 38,000  Level Memphis Center
Wed 06:10:48 PM 36.3411 -89.4783 195° South 481 554 38,000  Level Memphis Center
Wed 06:11:48 PM 36.2161 -89.5261 194° South 481 554 38,000  Level Memphis Center
Wed 06:12:00 PM 36.2030 -89.5374 194° South  Level FlightAware Approximate
Wed 06:12:48 PM 36.0956 -89.5708 197° South 468 539 38,000  Level Memphis Center
Wed 06:13:48 PM 35.9728 -89.6158 197° South 463 533 38,000  Level Memphis Center
Wed 06:14:48 PM 35.8522 -89.6631 198° South 458 527 38,000  Level Memphis Center
Wed 06:15:48 PM 35.7250 -89.6642 180° South 458 527 38,000 250 Level Memphis Center
Wed 06:17:00 PM 35.6869 -89.4914 105° East  Level FlightAware Approximate
Wed 06:18:48 PM 35.3753 -89.4456 139° Southeast 467 537 39,000  Level Memphis Center
Wed 06:19:48 PM 35.2828 -89.3575 142° Southeast 467 537 39,000  Level Memphis Center
Wed 06:20:48 PM 35.1881 -89.2467 136° Southeast 467 537 39,000  Level Memphis Center
Wed 06:21:48 PM 35.0931 -89.1389 137° Southeast 467 537 39,000  Level Memphis Center
Wed 06:22:49 PM 34.9961 -89.0289 137° Southeast 474 545 39,000  Level Memphis Center
Wed 06:23:48 PM 34.8903 -88.9139 138° Southeast 474 545 39,000  Level Memphis Center
Wed 06:24:00 PM 35.0460 -88.8104 139° Southeast  Level Estimated
Wed 06:24:48 PM 34.7953 -88.8069 137° Southeast 474 545 39,000  Level Memphis Center
Wed 06:25:48 PM 34.6978 -88.7000 138° Southeast 474 545 39,000  Level Memphis Center
Wed 06:26:48 PM 34.6236 -88.6158 137° Southeast 474 545 39,000  Level Memphis Center
Wed 06:27:48 PM 34.5178 -88.5069 140° Southeast 468 539 39,000  Level Memphis Center
Wed 06:28:48 PM 34.4222 -88.4008 137° Southeast 463 533 39,000  Level Memphis Center
Wed 06:29:49 PM 34.3267 -88.2947 137° Southeast 463 533 39,000  Level Memphis Center
Wed 06:30:49 PM 34.2267 -88.1892 139° Southeast 463 533 39,000  Level Memphis Center
Wed 06:31:48 PM 34.1286 -88.0739 136° Southeast 479 551 39,000  Level Memphis Center
Wed 06:32:48 PM 34.0286 -87.9661 138° Southeast 479 551 39,000  Level Memphis Center
Wed 06:35:12 PM 33.7875 -87.7081 138° Southeast 477 549 39,000  Level Atlanta Center
Wed 06:36:12 PM 33.6925 -87.6017 137° Southeast 472 543 39,000  Level Atlanta Center
Wed 06:37:12 PM 33.5975 -87.4978 138° Southeast 472 543 39,000  Level Atlanta Center
Wed 06:38:12 PM 33.5003 -87.3919 138° Southeast 472 543 39,000  Level Atlanta Center
Wed 06:39:12 PM 33.4028 -87.2886 138° Southeast 472 543 39,000  Level Atlanta Center
Wed 06:40:12 PM 33.3072 -87.1881 139° Southeast 472 543 39,000  Level Atlanta Center
Wed 06:41:12 PM 33.2119 -87.0853 138° Southeast 472 543 39,000  Level Atlanta Center
Wed 06:42:12 PM 33.1261 -87.0006 140° Southeast 457 526 39,000  Level Atlanta Center
Wed 06:43:12 PM 33.0286 -86.8956 138° Southeast 457 526 39,000  Level Atlanta Center
Wed 06:44:12 PM 32.9350 -86.7911 137° Southeast 457 526 39,000  Level Atlanta Center
Wed 06:45:12 PM 32.8411 -86.6892 138° Southeast 457 526 39,000  Level Atlanta Center
Wed 06:46:12 PM 32.7431 -86.5900 140° Southeast 457 526 39,000  Level Atlanta Center
Wed 06:47:12 PM 32.6489 -86.4911 139° Southeast 457 526 39,000  Level Atlanta Center
Wed 06:48:12 PM 32.5528 -86.3897 138° Southeast 457 526 39,000  Level Atlanta Center
Wed 06:49:12 PM 32.4461 -86.2886 141° Southeast 469 540 39,000  Level Atlanta Center
Wed 06:50:12 PM 32.3542 -86.1853 136° Southeast 469 540 39,000  Level Atlanta Center
Wed 06:51:12 PM 32.2769 -86.0631 127° Southeast 464 534 39,000  Level Atlanta Center
Wed 06:52:12 PM 32.2564 -85.9103 99° East 451 519 39,000  Level Atlanta Center
Wed 06:53:12 PM 32.2400 -85.7333 96° East 470 541 39,000  Level Atlanta Center
Wed 06:54:12 PM 32.2253 -85.5833 97° East 476 548 39,000  Level Atlanta Center
Wed 06:55:12 PM 32.2083 -85.4258 97° East 476 548 39,000  Level Atlanta Center
Wed 06:56:12 PM 32.1956 -85.2711 96° East 476 548 39,000  Level Atlanta Center
Wed 06:57:54 PM 32.1717 -85.0206 96° East 483 556 39,000  Level Jacksonville Center
Wed 06:58:54 PM 32.1617 -84.8656 94° East 483 556 39,000  Level Jacksonville Center
Wed 06:59:54 PM 32.1328 -84.7031 102° East 467 537 39,000  Level Jacksonville Center
Wed 07:00:54 PM 32.0847 -84.5575 111° Southeast 467 537 39,000  Level Jacksonville Center
Wed 07:01:54 PM 32.0025 -84.4408 130° Southeast 458 527 39,000  Level Jacksonville Center
Wed 07:02:55 PM 31.8906 -84.3753 154° Southeast 444 511 39,000  Level Jacksonville Center
Wed 07:03:54 PM 31.7681 -84.3219 160° South 453 521 39,000  Level Jacksonville Center
Wed 07:04:54 PM 31.6475 -84.2714 160° South 454 522 39,000  Level Jacksonville Center
Wed 07:05:54 PM 31.5269 -84.2233 161° South 454 522 39,000  Level Jacksonville Center
Wed 07:06:54 PM 31.4083 -84.1706 159° South 459 528 39,000  Level Jacksonville Center
Wed 07:07:54 PM 31.2900 -84.1178 159° South 459 528 39,000  Level Jacksonville Center
Wed 07:08:54 PM 31.1714 -84.0678 160° South 459 528 39,000  Level Jacksonville Center
Wed 07:09:54 PM 31.0528 -84.0178 160° South 459 528 39,000  Level Jacksonville Center
Wed 07:10:54 PM 30.9342 -83.9681 160° South 459 528 39,000  Level Jacksonville Center
Wed 07:11:54 PM 30.8156 -83.9183 160° South 459 528 39,000  Level Jacksonville Center
Wed 07:12:54 PM 30.6972 -83.8661 159° South 459 528 39,000  Level Jacksonville Center
Wed 07:13:54 PM 30.5783 -83.8192 161° South 459 528 39,000  Level Jacksonville Center
Wed 07:14:54 PM 30.4661 -83.7697 159° South 445 512 39,000  Level Jacksonville Center
Wed 07:16:54 PM 30.2369 -83.6764 161° South 452 520 39,000  Level Jacksonville Center
Wed 07:17:54 PM 30.1183 -83.6275 160° South 452 520 39,000  Level Jacksonville Center
Wed 07:18:54 PM 30.0017 -83.5786 160° South 452 520 39,000  Level Jacksonville Center
Wed 07:19:54 PM 29.8828 -83.5297 160° South 452 520 39,000  Level Jacksonville Center
Wed 07:20:54 PM 29.7619 -83.4786 160° South 452 520 39,000  Level Jacksonville Center
Wed 07:21:54 PM 29.6433 -83.4325 161° South 452 520 39,000  Level Jacksonville Center
Wed 07:22:54 PM 29.5244 -83.3842 161° South 457 526 39,000  Level Jacksonville Center
Wed 07:23:54 PM 29.4056 -83.3336 160° South 452 520 39,000  Level Jacksonville Center
Wed 07:24:54 PM 29.2889 -83.2831 159° South 452 520 39,000  Level Jacksonville Center
Wed 07:25:55 PM 29.1700 -83.2375 161° South 452 520 39,000  Level Jacksonville Center
Wed 07:26:54 PM 29.0533 -83.1872 159° South 447 514 39,000  Level Jacksonville Center
Wed 07:27:54 PM 28.9344 -83.1392 161° South 447 514 39,000  Level Jacksonville Center
Wed 07:28:54 PM 28.8197 -83.0939 161° South 442 509 39,000  Level Jacksonville Center
Wed 07:29:54 PM 28.7028 -83.0442 160° South 442 509 39,000  Level Jacksonville Center
Wed 07:30:54 PM 28.6069 -82.9589 142° Southeast 432 497 39,000 -50 Level Jacksonville Center
Wed 07:31:54 PM 28.5233 -82.8619 134° Southeast 430 495 38,900  Descending Jacksonville Center
Wed 07:34:24 PM 28.3158 -82.6336 136° Southeast 452 520 39,000  Climbing Miami Center
Wed 07:35:24 PM 28.2156 -82.5317 138° Southeast 445 512 38,900  Descending Miami Center
Wed 07:36:24 PM 28.1081 -82.4583 149° Southeast 445 512 39,000 50 Climbing Miami Center
Wed 07:37:24 PM 27.9933 -82.4031 157° South 439 505 39,000  Level Miami Center
Wed 07:38:24 PM 27.8781 -82.3647 164° South 439 505 39,000  Level Miami Center
Wed 07:39:24 PM 27.7606 -82.3261 164° South 439 505 39,000  Level Miami Center
Wed 07:40:24 PM 27.6267 -82.2800 163° South 444 511 39,000  Level Miami Center
Wed 07:41:24 PM 27.5094 -82.2369 162° South 452 520 39,000  Level Miami Center
Wed 07:42:24 PM 27.3875 -82.1986 164° South 452 520 39,000  Level Miami Center
Wed 07:43:24 PM 27.2847 -82.1611 162° South 447 514 39,000  Level Miami Center
Wed 07:44:24 PM 27.1506 -82.1153 163° South 452 520 39,000 -50 Level Miami Center
Wed 07:45:24 PM 27.0292 -82.0725 163° South 452 520 38,900 -550 Descending Miami Center
Wed 07:46:24 PM 26.9300 -81.9867 142° Southeast 445 512 37,900 -1,350 Descending Miami Center
Wed 07:47:24 PM 26.8331 -81.8914 139° Southeast 454 522 36,200 -2,350 Descending Miami Center
Wed 07:48:24 PM 26.7422 -81.7992 138° Southeast 454 522 33,200 -2,750 Descending Miami Center
Wed 07:49:24 PM 26.6514 -81.7117 139° Southeast 448 516 30,700 -2,500 Descending Miami Center
Wed 07:50:24 PM 26.5683 -81.6272 138° Southeast 420 483 28,200 -2,500 Descending Miami Center
Wed 07:51:24 PM 26.4875 -81.5497 139° Southeast 398 458 25,700 -2,400 Descending Miami Center
Wed 07:52:24 PM 26.4208 -81.4819 138° Southeast 388 447 23,400 -2,300 Descending Miami Center
Wed 07:53:24 PM 26.3417 -81.4072 140° Southeast 382 440 21,100 -2,100 Descending Miami Center
Wed 07:54:24 PM 26.2708 -81.3350 138° Southeast 362 417 19,200 -1,650 Descending Miami Center
Wed 07:55:24 PM 26.2042 -81.2561 133° Southeast 349 402 17,800 -1,350 Descending Miami Center
Wed 07:56:24 PM 26.1439 -81.1844 133° Southeast 325 374 16,500 -1,300 Descending Miami Center
Wed 07:57:24 PM 26.0831 -81.1153 134° Southeast 319 367 15,200 -1,421 Descending Miami Center
Wed 07:58:18 PM 26.0225 -81.0506 136° Southeast 289 333 13,800 -1,596 Descending Miami Center
Wed 07:59:13 PM 25.9719 -80.9911 133° Southeast 278 320 12,300 -1,385 Descending Miami Center
Wed 08:00:15 PM 25.9172 -80.9314 136° Southeast 276 318 11,100 -965 Descending Miami Center
Wed 08:01:36 PM 25.8733 -80.8514 121° Southeast 263 303 10,000 -1,033 Descending Miami Center
Wed 08:02:17 PM 25.8644 -80.8003 101° East 227 261 9,000 -1,529 Descending Miami Center
Wed 08:03:18 PM 25.8597 -80.7333 94° East 222 255 7,400 -1,641 Descending Miami Center
Wed 08:04:25 PM 25.8597 -80.6572 90° East 215 247 5,500 -1,672 Descending Miami Center
Wed 08:05:20 PM 25.8528 -80.5992 98° East 207 238 4,000 -1,230 Descending Miami Center
Wed 08:06:27 PM 25.8503 -80.5322 92° East 200 230 3,000 -656 Descending Miami Center
Wed 08:07:28 PM 25.8394 -80.4650 100° East 194 223 2,600 -541 Descending Miami Center
Wed 08:08:29 PM 25.8197 -80.4250 119° Southeast 152 175 1,900 -541 Descending Miami Center
Wed 08:09:30 PM 25.7994 -80.3944 126° Southeast 137 158 1,500 -488 Descending Miami Center
Wed 08:10:32 PM 25.7983 -80.3528 92° East 122 140 900 -581 Descending Miami Center

Login

Don't have an account? Register now (free) for customized features, flight alerts, and more!